sensor_id;sensor_type;location;lat;lon;timestamp;pressure;altitude;pressure_sealevel;temperature;humidity
10474;BME280;5284;50.446;7.904;2023-02-08T00:00:43;100562.72;;;-3.09;100.00
10474;BME280;5284;50.446;7.904;2023-02-08T00:05:46;100558.34;;;-3.12;100.00
10474;BME280;5284;50.446;7.904;2023-02-08T00:10:49;100558.34;;;-3.15;100.00
10474;BME280;5284;50.446;7.904;2023-02-08T00:15:54;100551.41;;;-3.16;100.00
10474;BME280;5284;50.446;7.904;2023-02-08T00:20:57;100555.75;;;-3.16;100.00
10474;BME280;5284;50.446;7.904;2023-02-08T00:26:00;100558.34;;;-3.15;100.00
10474;BME280;5284;50.446;7.904;2023-02-08T00:31:04;100557.47;;;-3.11;100.00
10474;BME280;5284;50.446;7.904;2023-02-08T00:36:10;100557.47;;;-3.08;100.00
10474;BME280;5284;50.446;7.904;2023-02-08T00:41:15;100550.53;;;-3.13;100.00
10474;BME280;5284;50.446;7.904;2023-02-08T00:46:22;100547.03;;;-3.20;100.00
10474;BME280;5284;50.446;7.904;2023-02-08T00:51:25;100544.44;;;-3.32;100.00
10474;BME280;5284;50.446;7.904;2023-02-08T00:56:27;100551.34;;;-3.44;100.00
10474;BME280;5284;50.446;7.904;2023-02-08T01:01:34;100541.78;;;-3.51;100.00
10474;BME280;5284;50.446;7.904;2023-02-08T01:06:37;100544.38;;;-3.50;100.00
10474;BME280;5284;50.446;7.904;2023-02-08T01:11:40;100553.06;;;-3.48;100.00
10474;BME280;5284;50.446;7.904;2023-02-08T01:16:45;100553.94;;;-3.56;100.00
10474;BME280;5284;50.446;7.904;2023-02-08T01:21:48;100547.81;;;-3.63;100.00
10474;BME280;5284;50.446;7.904;2023-02-08T01:26:50;100546.09;;;-3.61;100.00
10474;BME280;5284;50.446;7.904;2023-02-08T01:31:55;100542.59;;;-3.64;100.00
10474;BME280;5284;50.446;7.904;2023-02-08T01:36:58;100546.94;;;-3.71;100.00
10474;BME280;5284;50.446;7.904;2023-02-08T01:42:00;100541.69;;;-3.72;100.00
10474;BME280;5284;50.446;7.904;2023-02-08T01:47:05;100541.69;;;-3.78;100.00
10474;BME280;5284;50.446;7.904;2023-02-08T01:52:10;100537.31;;;-3.84;100.00
10474;BME280;5284;50.446;7.904;2023-02-08T01:57:15;100539.06;;;-3.81;100.00
10474;BME280;5284;50.446;7.904;2023-02-08T02:02:21;100532.94;;;-3.91;100.00
10474;BME280;5284;50.446;7.904;2023-02-08T02:07:25;100531.19;;;-3.92;100.00
10474;BME280;5284;50.446;7.904;2023-02-08T02:12:30;100528.59;;;-3.95;100.00
10474;BME280;5284;50.446;7.904;2023-02-08T02:17:35;100525.97;;;-3.95;100.00
10474;BME280;5284;50.446;7.904;2023-02-08T02:23:02;100521.63;;;-3.97;100.00
10474;BME280;5284;50.446;7.904;2023-02-08T02:28:38;100517.28;;;-4.00;100.00
10474;BME280;5284;50.446;7.904;2023-02-08T02:33:54;100513.78;;;-4.06;100.00
10474;BME280;5284;50.446;7.904;2023-02-08T02:39:07;100522.41;;;-4.19;100.00
10474;BME280;5284;50.446;7.904;2023-02-08T02:44:22;100523.28;;;-4.14;100.00
10474;BME280;5284;50.446;7.904;2023-02-08T02:49:33;100518.97;;;-4.09;100.00
10474;BME280;5284;50.446;7.904;2023-02-08T02:54:40;100512.88;;;-4.10;100.00
10474;BME280;5284;50.446;7.904;2023-02-08T02:59:45;100521.59;;;-4.06;100.00
10474;BME280;5284;50.446;7.904;2023-02-08T03:04:52;100524.22;;;-4.05;100.00
10474;BME280;5284;50.446;7.904;2023-02-08T03:10:06;100531.16;;;-4.01;100.00
10474;BME280;5284;50.446;7.904;2023-02-08T03:15:19;100523.38;;;-3.95;100.00
10474;BME280;5284;50.446;7.904;2023-02-08T03:20:29;100517.28;;;-3.97;100.00
10474;BME280;5284;50.446;7.904;2023-02-08T03:25:38;100518.19;;;-3.92;100.00
10474;BME280;5284;50.446;7.904;2023-02-08T03:30:52;100513.81;;;-3.97;100.00
10474;BME280;5284;50.446;7.904;2023-02-08T03:36:02;100515.50;;;-4.11;100.00
10474;BME280;5284;50.446;7.904;2023-02-08T03:41:13;100513.72;;;-4.18;100.00
10474;BME280;5284;50.446;7.904;2023-02-08T03:46:20;100521.59;;;-4.08;100.00
10474;BME280;5284;50.446;7.904;2023-02-08T03:51:28;100506.78;;;-4.12;100.00
10474;BME280;5284;50.446;7.904;2023-02-08T03:56:36;100516.28;;;-4.26;100.00
10474;BME280;5284;50.446;7.904;2023-02-08T04:01:43;100518.00;;;-4.28;100.00
10474;BME280;5284;50.446;7.904;2023-02-08T04:06:49;100519.78;;;-4.25;100.00
10474;BME280;5284;50.446;7.904;2023-02-08T04:11:51;100519.75;;;-4.24;100.00
10474;BME280;5284;50.446;7.904;2023-02-08T04:16:54;100525.81;;;-4.28;100.00
10474;BME280;5284;50.446;7.904;2023-02-08T04:21:58;100524.94;;;-4.27;100.00
10474;BME280;5284;50.446;7.904;2023-02-08T04:27:01;100520.59;;;-4.34;100.00
10474;BME280;5284;50.446;7.904;2023-02-08T04:32:06;100512.75;;;-4.38;100.00
10474;BME280;5284;50.446;7.904;2023-02-08T04:37:13;100519.69;;;-4.37;100.00
10474;BME280;5284;50.446;7.904;2023-02-08T04:42:16;100511.84;;;-4.43;100.00
10474;BME280;5284;50.446;7.904;2023-02-08T04:47:19;100507.53;;;-4.40;100.00
10474;BME280;5284;50.446;7.904;2023-02-08T04:52:24;100498.84;;;-4.40;100.00
10474;BME280;5284;50.446;7.904;2023-02-08T04:57:27;100506.66;;;-4.43;100.00
10474;BME280;5284;50.446;7.904;2023-02-08T05:02:30;100498.81;;;-4.46;100.00
10474;BME280;5284;50.446;7.904;2023-02-08T05:07:34;100494.44;;;-4.49;100.00
10474;BME280;5284;50.446;7.904;2023-02-08T05:12:37;100500.50;;;-4.55;100.00
10474;BME280;5284;50.446;7.904;2023-02-08T05:17:40;100498.78;;;-4.48;100.00
10474;BME280;5284;50.446;7.904;2023-02-08T05:22:44;100500.56;;;-4.45;100.00
10474;BME280;5284;50.446;7.904;2023-02-08T05:27:47;100496.19;;;-4.49;100.00
10474;BME280;5284;50.446;7.904;2023-02-08T05:32:50;100494.47;;;-4.46;100.00
10474;BME280;5284;50.446;7.904;2023-02-08T05:37:54;100500.56;;;-4.42;100.00
10474;BME280;5284;50.446;7.904;2023-02-08T05:42:57;100506.66;;;-4.43;100.00
10474;BME280;5284;50.446;7.904;2023-02-08T05:47:59;100520.50;;;-4.46;100.00
10474;BME280;5284;50.446;7.904;2023-02-08T05:53:03;100525.69;;;-4.46;100.00
10474;BME280;5284;50.446;7.904;2023-02-08T05:58:06;100515.31;;;-4.44;100.00
10474;BME280;5284;50.446;7.904;2023-02-08T06:03:09;100523.13;;;-4.43;100.00
10474;BME280;5284;50.446;7.904;2023-02-08T06:08:13;100520.56;;;-4.40;100.00
10474;BME280;5284;50.446;7.904;2023-02-08T06:13:16;100519.69;;;-4.39;100.00
10474;BME280;5284;50.446;7.904;2023-02-08T06:18:19;100523.16;;;-4.37;100.00
10474;BME280;5284;50.446;7.904;2023-02-08T06:23:24;100521.41;;;-4.36;100.00
10474;BME280;5284;50.446;7.904;2023-02-08T06:28:26;100528.34;;;-4.38;100.00
10474;BME280;5284;50.446;7.904;2023-02-08T06:33:29;100534.44;;;-4.41;100.00
10474;BME280;5284;50.446;7.904;2023-02-08T06:38:34;100529.25;;;-4.38;100.00
10474;BME280;5284;50.446;7.904;2023-02-08T06:43:36;100528.41;;;-4.34;100.00
10474;BME280;5284;50.446;7.904;2023-02-08T06:48:40;100535.34;;;-4.31;100.00
10474;BME280;5284;50.446;7.904;2023-02-08T06:53:44;100534.47;;;-4.30;100.00
10474;BME280;5284;50.446;7.904;2023-02-08T06:58:46;100528.41;;;-4.28;100.00
10474;BME280;5284;50.446;7.904;2023-02-08T07:03:49;100531.06;;;-4.22;100.00
10474;BME280;5284;50.446;7.904;2023-02-08T07:08:54;100536.31;;;-4.14;100.00
10474;BME280;5284;50.446;7.904;2023-02-08T07:13:57;100527.75;;;-3.89;100.00
10474;BME280;5284;50.446;7.904;2023-02-08T07:19:00;100529.56;;;-3.64;100.00
10474;BME280;5284;50.446;7.904;2023-02-08T07:24:04;100522.69;;;-3.40;100.00
10474;BME280;5284;50.446;7.904;2023-02-08T07:29:07;100520.13;;;-3.17;100.00
10474;BME280;5284;50.446;7.904;2023-02-08T07:34:10;100517.53;;;-3.04;100.00
10474;BME280;5284;50.446;7.904;2023-02-08T07:39:15;100514.91;;;-2.86;100.00
10474;BME280;5284;50.446;7.904;2023-02-08T07:44:18;100510.53;;;-2.60;100.00
10474;BME280;5284;50.446;7.904;2023-02-08T07:49:21;100515.69;;;-2.35;100.00
10474;BME280;5284;50.446;7.904;2023-02-08T08:01:08;100513.72;;;-1.68;100.00
10474;BME280;5284;50.446;7.904;2023-02-08T08:06:23;100504.91;;;-1.50;100.00
10474;BME280;5284;50.446;7.904;2023-02-08T08:11:27;100498.72;;;-1.34;100.00
10474;BME280;5284;50.446;7.904;2023-02-08T08:16:31;100494.97;;;-1.03;100.00
10474;BME280;5284;50.446;7.904;2023-02-08T08:21:34;100494.88;;;-0.92;100.00
10474;BME280;5284;50.446;7.904;2023-02-08T08:26:37;100490.41;;;-0.75;100.00
10474;BME280;5284;50.446;7.904;2023-02-08T08:31:43;100496.41;;;-0.64;100.00
10474;BME280;5284;50.446;7.904;2023-02-08T08:36:46;100491.88;;;-0.47;100.00
10474;BME280;5284;50.446;7.904;2023-02-08T08:41:49;100490.78;;;-0.28;100.00
10474;BME280;5284;50.446;7.904;2023-02-08T08:46:55;100491.50;;;-0.11;100.00
10474;BME280;5284;50.446;7.904;2023-02-08T08:51:58;100502.56;;;0.11;100.00
10474;BME280;5284;50.446;7.904;2023-02-08T08:57:01;100497.25;;;0.14;100.00
10474;BME280;5284;50.446;7.904;2023-02-08T09:02:05;100498.88;;;0.26;99.09
10474;BME280;5284;50.446;7.904;2023-02-08T09:07:09;100488.13;;;0.45;97.34
10474;BME280;5284;50.446;7.904;2023-02-08T09:12:12;100483.47;;;0.65;97.81
10474;BME280;5284;50.446;7.904;2023-02-08T09:17:17;100486.84;;;0.73;93.28
10474;BME280;5284;50.446;7.904;2023-02-08T09:22:20;100487.44;;;0.92;93.03
10474;BME280;5284;50.446;7.904;2023-02-08T09:27:23;100484.50;;;1.11;90.35
10474;BME280;5284;50.446;7.904;2023-02-08T09:32:30;100491.00;;;1.41;88.66
10474;BME280;5284;50.446;7.904;2023-02-08T09:37:34;100500.81;;;1.31;82.69
10474;BME280;5284;50.446;7.904;2023-02-08T09:42:39;100500.72;;;1.36;81.83
10474;BME280;5284;50.446;7.904;2023-02-08T09:47:49;100505.59;;;1.56;79.51
10474;BME280;5284;50.446;7.904;2023-02-08T09:53:01;100507.69;;;1.86;77.37
10474;BME280;5284;50.446;7.904;2023-02-08T09:58:16;100504.22;;;1.84;73.71
10474;BME280;5284;50.446;7.904;2023-02-08T10:03:28;100495.78;;;2.11;73.67
10474;BME280;5284;50.446;7.904;2023-02-08T10:08:34;100491.84;;;2.32;71.56
10474;BME280;5284;50.446;7.904;2023-02-08T10:13:51;100488.25;;;2.75;71.35
10474;BME280;5284;50.446;7.904;2023-02-08T10:19:04;100476.53;;;2.88;70.43
10474;BME280;5284;50.446;7.904;2023-02-08T10:24:21;100474.25;;;3.09;68.93
10474;BME280;5284;50.446;7.904;2023-02-08T10:29:54;100464.47;;;3.48;67.35
10474;BME280;5284;50.446;7.904;2023-02-08T10:35:05;100460.81;;;3.53;65.42
10474;BME280;5284;50.446;7.904;2023-02-08T10:40:22;100468.53;;;3.61;65.02
10474;BME280;5284;50.446;7.904;2023-02-08T10:45:29;100462.88;;;4.05;64.30
10474;BME280;5284;50.446;7.904;2023-02-08T10:50:39;100472.72;;;4.30;63.80
10474;BME280;5284;50.446;7.904;2023-02-08T10:55:45;100464.75;;;4.60;62.83
10474;BME280;5284;50.446;7.904;2023-02-08T11:00:48;100459.94;;;5.00;62.05
10474;BME280;5284;50.446;7.904;2023-02-08T11:05:54;100455.28;;;4.81;59.75
10474;BME280;5284;50.446;7.904;2023-02-08T11:10:59;100451.63;;;4.85;57.68
10474;BME280;5284;50.446;7.904;2023-02-08T11:16:05;100446.94;;;5.46;58.29
10474;BME280;5284;50.446;7.904;2023-02-08T11:21:22;100435.34;;;5.50;54.03
10474;BME280;5284;50.446;7.904;2023-02-08T11:26:30;100434.06;;;5.62;54.37
10474;BME280;5284;50.446;7.904;2023-02-08T11:31:34;100426.91;;;6.12;53.80
10474;BME280;5284;50.446;7.904;2023-02-08T11:36:44;100418.50;;;6.69;52.97
10474;BME280;5284;50.446;7.904;2023-02-08T11:41:50;100414.72;;;6.31;50.92
10474;BME280;5284;50.446;7.904;2023-02-08T11:46:55;100412.50;;;6.65;51.60
10474;BME280;5284;50.446;7.904;2023-02-08T11:52:02;100405.00;;;7.18;50.35
10474;BME280;5284;50.446;7.904;2023-02-08T11:57:14;100396.78;;;7.24;47.75
10474;BME280;5284;50.446;7.904;2023-02-08T12:02:34;100389.28;;;7.93;47.56
10474;BME280;5284;50.446;7.904;2023-02-08T12:07:53;100387.16;;;8.01;45.87
10474;BME280;5284;50.446;7.904;2023-02-08T12:13:23;100390.34;;;8.83;47.62
10474;BME280;5284;50.446;7.904;2023-02-08T12:19:04;100384.53;;;9.10;46.85
10474;BME280;5284;50.446;7.904;2023-02-08T12:24:21;100389.84;;;9.78;47.13
10474;BME280;5284;50.446;7.904;2023-02-08T12:29:39;100369.41;;;9.78;44.17
10474;BME280;5284;50.446;7.904;2023-02-08T12:35:01;100363.50;;;10.06;45.64
10474;BME280;5284;50.446;7.904;2023-02-08T12:40:20;100362.94;;;9.50;46.01
10474;BME280;5284;50.446;7.904;2023-02-08T12:45:54;100353.78;;;8.51;45.77
10474;BME280;5284;50.446;7.904;2023-02-08T12:51:05;100345.38;;;9.46;47.75
10474;BME280;5284;50.446;7.904;2023-02-08T12:56:16;100343.06;;;8.71;48.28
10474;BME280;5284;50.446;7.904;2023-02-08T13:01:24;100335.91;;;7.21;48.14
10474;BME280;5284;50.446;7.904;2023-02-08T13:06:30;100322.25;;;7.30;48.72
10474;BME280;5284;50.446;7.904;2023-02-08T13:11:38;100314.97;;;6.52;49.81
10474;BME280;5284;50.446;7.904;2023-02-08T13:16:43;100313.53;;;6.65;50.68
10474;BME280;5284;50.446;7.904;2023-02-08T13:21:47;100318.00;;;5.99;52.27
10474;BME280;5284;50.446;7.904;2023-02-08T13:26:53;100308.63;;;5.90;52.62
10474;BME280;5284;50.446;7.904;2023-02-08T13:31:59;100303.13;;;5.95;53.03
10474;BME280;5284;50.446;7.904;2023-02-08T13:37:17;100289.16;;;5.91;51.89
10474;BME280;5284;50.446;7.904;2023-02-08T13:42:30;100293.75;;;5.63;53.25
10474;BME280;5284;50.446;7.904;2023-02-08T13:47:41;100287.53;;;5.64;51.51
10474;BME280;5284;50.446;7.904;2023-02-08T13:52:53;100277.97;;;5.60;52.21
10474;BME280;5284;50.446;7.904;2023-02-08T13:57:58;100284.47;;;5.75;49.78
10474;BME280;5284;50.446;7.904;2023-02-08T14:03:10;100284.06;;;5.62;50.25
10474;BME280;5284;50.446;7.904;2023-02-08T14:08:27;100279.34;;;5.70;48.96
10474;BME280;5284;50.446;7.904;2023-02-08T14:13:37;100278.03;;;5.36;48.19
10474;BME280;5284;50.446;7.904;2023-02-08T14:18:50;100273.00;;;5.28;49.56
10474;BME280;5284;50.446;7.904;2023-02-08T14:23:59;100262.28;;;5.33;50.20
10474;BME280;5284;50.446;7.904;2023-02-08T14:29:05;100261.59;;;5.28;49.30
10474;BME280;5284;50.446;7.904;2023-02-08T14:34:27;100253.03;;;5.20;48.93
10474;BME280;5284;50.446;7.904;2023-02-08T14:39:35;100254.19;;;5.13;48.32
10474;BME280;5284;50.446;7.904;2023-02-08T14:44:57;100261.75;;;4.99;48.69
10474;BME280;5284;50.446;7.904;2023-02-08T14:50:04;100247.44;;;4.80;49.52
10474;BME280;5284;50.446;7.904;2023-02-08T14:55:14;100231.69;;;4.77;48.82
10474;BME280;5284;50.446;7.904;2023-02-08T15:00:22;100224.53;;;4.80;49.33
10474;BME280;5284;50.446;7.904;2023-02-08T15:05:29;100228.22;;;4.76;48.49
10474;BME280;5284;50.446;7.904;2023-02-08T15:10:32;100239.28;;;4.61;48.73
10474;BME280;5284;50.446;7.904;2023-02-08T15:15:39;100227.66;;;4.67;49.41
10474;BME280;5284;50.446;7.904;2023-02-08T15:20:44;100227.88;;;4.61;49.28
10474;BME280;5284;50.446;7.904;2023-02-08T15:25:54;100223.22;;;4.42;49.96
10474;BME280;5284;50.446;7.904;2023-02-08T15:31:01;100225.16;;;4.37;49.65
10474;BME280;5284;50.446;7.904;2023-02-08T15:36:07;100214.81;;;4.31;50.43
10474;BME280;5284;50.446;7.904;2023-02-08T15:41:24;100210.97;;;4.15;50.10
10474;BME280;5284;50.446;7.904;2023-02-08T15:46:29;100216.50;;;4.07;51.01
10474;BME280;5284;50.446;7.904;2023-02-08T15:51:32;100215.19;;;3.93;50.69
10474;BME280;5284;50.446;7.904;2023-02-08T15:56:36;100201.25;;;3.62;51.97
10474;BME280;5284;50.446;7.904;2023-02-08T16:01:46;100190.19;;;3.49;52.31
10474;BME280;5284;50.446;7.904;2023-02-08T16:06:51;100193.16;;;3.39;53.28
10474;BME280;5284;50.446;7.904;2023-02-08T16:11:57;100190.19;;;3.20;53.67
10474;BME280;5284;50.446;7.904;2023-02-08T16:17:02;100190.28;;;3.17;52.94
10474;BME280;5284;50.446;7.904;2023-02-08T16:22:22;100187.31;;;2.99;54.67
10474;BME280;5284;50.446;7.904;2023-02-08T16:27:28;100185.06;;;2.86;55.50
10474;BME280;5284;50.446;7.904;2023-02-08T16:32:34;100187.34;;;2.67;57.47
10474;BME280;5284;50.446;7.904;2023-02-08T16:37:40;100187.81;;;2.51;58.01
10474;BME280;5284;50.446;7.904;2023-02-08T16:42:43;100184.69;;;2.35;59.04
10474;BME280;5284;50.446;7.904;2023-02-08T16:47:50;100184.22;;;2.20;59.93
10474;BME280;5284;50.446;7.904;2023-02-08T16:52:55;100178.56;;;2.01;60.69
10474;BME280;5284;50.446;7.904;2023-02-08T16:58:00;100175.56;;;1.81;61.29
10474;BME280;5284;50.446;7.904;2023-02-08T17:03:04;100177.63;;;1.69;61.89
10474;BME280;5284;50.446;7.904;2023-02-08T17:08:11;100175.31;;;1.57;62.44
10474;BME280;5284;50.446;7.904;2023-02-08T17:13:17;100165.94;;;1.44;63.28
10474;BME280;5284;50.446;7.904;2023-02-08T17:18:23;100170.59;;;1.32;63.56
10474;BME280;5284;50.446;7.904;2023-02-08T17:23:25;100169.28;;;1.13;65.91
10474;BME280;5284;50.446;7.904;2023-02-08T17:28:28;100167.78;;;1.01;66.12
10474;BME280;5284;50.446;7.904;2023-02-08T17:33:33;100175.88;;;0.91;68.12
10474;BME280;5284;50.446;7.904;2023-02-08T17:38:41;100173.44;;;0.82;68.33
10474;BME280;5284;50.446;7.904;2023-02-08T17:43:45;100172.75;;;0.72;67.90
10474;BME280;5284;50.446;7.904;2023-02-08T17:48:52;100160.59;;;0.68;68.10
10474;BME280;5284;50.446;7.904;2023-02-08T17:53:55;100153.56;;;0.70;66.56
10474;BME280;5284;50.446;7.904;2023-02-08T17:58:58;100156.50;;;0.54;68.31
10474;BME280;5284;50.446;7.904;2023-02-08T18:04:05;100145.50;;;0.35;73.17
10474;BME280;5284;50.446;7.904;2023-02-08T18:09:11;100144.03;;;0.21;77.25
10474;BME280;5284;50.446;7.904;2023-02-08T18:14:14;100158.25;;;0.08;78.93
10474;BME280;5284;50.446;7.904;2023-02-08T18:19:20;100156.63;;;0.01;77.96
10474;BME280;5284;50.446;7.904;2023-02-08T18:24:23;100158.56;;;-0.10;81.91
10474;BME280;5284;50.446;7.904;2023-02-08T18:29:26;100157.00;;;-0.21;86.32
10474;BME280;5284;50.446;7.904;2023-02-08T18:34:30;100158.09;;;-0.34;87.50
10474;BME280;5284;50.446;7.904;2023-02-08T18:39:34;100165.22;;;-0.44;88.11
10474;BME280;5284;50.446;7.904;2023-02-08T18:44:37;100147.88;;;-0.52;88.50
10474;BME280;5284;50.446;7.904;2023-02-08T18:49:41;100155.09;;;-0.66;90.89
10474;BME280;5284;50.446;7.904;2023-02-08T18:54:44;100156.94;;;-0.71;90.97
10474;BME280;5284;50.446;7.904;2023-02-08T18:59:46;100154.34;;;-0.74;88.94
10474;BME280;5284;50.446;7.904;2023-02-08T19:04:51;100164.84;;;-0.76;90.52
10474;BME280;5284;50.446;7.904;2023-02-08T19:09:53;100161.47;;;-0.82;91.49
10474;BME280;5284;50.446;7.904;2023-02-08T19:14:56;100172.03;;;-0.90;92.66
10474;BME280;5284;50.446;7.904;2023-02-08T19:20:01;100180.84;;;-0.98;92.77
10474;BME280;5284;50.446;7.904;2023-02-08T19:25:04;100170.44;;;-1.03;92.55
10474;BME280;5284;50.446;7.904;2023-02-08T19:30:09;100166.19;;;-1.10;93.90
10474;BME280;5284;50.446;7.904;2023-02-08T19:35:13;100172.34;;;-1.14;92.02
10474;BME280;5284;50.446;7.904;2023-02-08T19:40:16;100169.81;;;-1.21;94.43
10474;BME280;5284;50.446;7.904;2023-02-08T19:45:19;100162.97;;;-1.31;96.74
10474;BME280;5284;50.446;7.904;2023-02-08T19:50:23;100150.84;;;-1.38;96.26
10474;BME280;5284;50.446;7.904;2023-02-08T19:55:26;100148.34;;;-1.47;97.23
10474;BME280;5284;50.446;7.904;2023-02-08T20:00:29;100138.81;;;-1.51;98.11
10474;BME280;5284;50.446;7.904;2023-02-08T20:05:35;100134.50;;;-1.58;98.71
10474;BME280;5284;50.446;7.904;2023-02-08T20:10:38;100135.44;;;-1.62;98.62
10474;BME280;5284;50.446;7.904;2023-02-08T20:15:42;100132.03;;;-1.68;98.38
10474;BME280;5284;50.446;7.904;2023-02-08T20:20:57;100123.34;;;-1.73;99.30
10474;BME280;5284;50.446;7.904;2023-02-08T20:26:05;100132.16;;;-1.80;99.74
10474;BME280;5284;50.446;7.904;2023-02-08T20:31:10;100129.56;;;-1.83;99.44
10474;BME280;5284;50.446;7.904;2023-02-08T20:36:17;100133.09;;;-1.87;98.38
10474;BME280;5284;50.446;7.904;2023-02-08T20:41:20;100128.00;;;-2.01;100.00
10474;BME280;5284;50.446;7.904;2023-02-08T20:46:25;100128.13;;;-2.13;100.00
10474;BME280;5284;50.446;7.904;2023-02-08T20:51:30;100126.47;;;-2.20;100.00
10474;BME280;5284;50.446;7.904;2023-02-08T20:56:34;100121.25;;;-2.21;100.00
10474;BME280;5284;50.446;7.904;2023-02-08T21:01:38;100124.84;;;-2.31;100.00
10474;BME280;5284;50.446;7.904;2023-02-08T21:06:43;100125.69;;;-2.29;100.00
10474;BME280;5284;50.446;7.904;2023-02-08T21:11:47;100119.63;;;-2.34;100.00
10474;BME280;5284;50.446;7.904;2023-02-08T21:16:51;100104.84;;;-2.35;100.00
10474;BME280;5284;50.446;7.904;2023-02-08T21:21:59;100099.59;;;-2.34;100.00
10474;BME280;5284;50.446;7.904;2023-02-08T21:27:03;100098.78;;;-2.40;100.00
10474;BME280;5284;50.446;7.904;2023-02-08T21:32:08;100101.44;;;-2.45;100.00
10474;BME280;5284;50.446;7.904;2023-02-08T21:37:12;100084.09;;;-2.49;100.00
10474;BME280;5284;50.446;7.904;2023-02-08T21:42:15;100083.25;;;-2.54;100.00
10474;BME280;5284;50.446;7.904;2023-02-08T21:47:18;100070.22;;;-2.60;100.00
10474;BME280;5284;50.446;7.904;2023-02-08T21:52:22;100069.41;;;-2.63;100.00
10474;BME280;5284;50.446;7.904;2023-02-08T21:57:42;100057.28;;;-2.72;100.00
10474;BME280;5284;50.446;7.904;2023-02-08T22:02:45;100062.50;;;-2.72;100.00
10474;BME280;5284;50.446;7.904;2023-02-08T22:07:51;100050.34;;;-2.71;100.00
10474;BME280;5284;50.446;7.904;2023-02-08T22:12:55;100036.38;;;-2.67;100.00
10474;BME280;5284;50.446;7.904;2023-02-08T22:18:00;100038.56;;;-2.21;100.00
10474;BME280;5284;50.446;7.904;2023-02-08T22:23:04;100036.50;;;-1.93;99.64
10474;BME280;5284;50.446;7.904;2023-02-08T22:28:07;100038.88;;;-1.75;97.43
10474;BME280;5284;50.446;7.904;2023-02-08T22:33:10;100043.16;;;-1.71;95.77
10474;BME280;5284;50.446;7.904;2023-02-08T22:38:15;100044.84;;;-1.64;94.87
10474;BME280;5284;50.446;7.904;2023-02-08T22:43:17;100058.56;;;-1.46;94.04
10474;BME280;5284;50.446;7.904;2023-02-08T22:48:20;100059.66;;;-1.63;94.60
10474;BME280;5284;50.446;7.904;2023-02-08T22:53:25;100063.94;;;-1.61;95.43
10474;BME280;5284;50.446;7.904;2023-02-08T22:58:28;100077.22;;;-1.76;97.46
10474;BME280;5284;50.446;7.904;2023-02-08T23:03:31;100087.59;;;-1.68;97.11
10474;BME280;5284;50.446;7.904;2023-02-08T23:08:35;100082.50;;;-1.79;98.28
10474;BME280;5284;50.446;7.904;2023-02-08T23:13:38;100070.19;;;-1.72;96.40
10474;BME280;5284;50.446;7.904;2023-02-08T23:18:41;100070.34;;;-1.84;98.37
10474;BME280;5284;50.446;7.904;2023-02-08T23:23:46;100068.75;;;-1.97;100.00
10474;BME280;5284;50.446;7.904;2023-02-08T23:28:50;100068.91;;;-2.11;100.00
10474;BME280;5284;50.446;7.904;2023-02-08T23:33:54;100069.88;;;-2.21;100.00
10474;BME280;5284;50.446;7.904;2023-02-08T23:38:59;100062.94;;;-2.25;100.00
10474;BME280;5284;50.446;7.904;2023-02-08T23:44:04;100073.50;;;-2.35;100.00
10474;BME280;5284;50.446;7.904;2023-02-08T23:49:06;100075.34;;;-2.45;100.00
10474;BME280;5284;50.446;7.904;2023-02-08T23:54:11;100078.91;;;-2.56;100.00
10474;BME280;5284;50.446;7.904;2023-02-08T23:59:13;100084.19;;;-2.64;100.00
